首页
METAR-TAF:

METAR-TAF

机场 :

恩賈梅納, 乍得

恩贾梅纳国际机场

纬度: 12-08N, 经度: 015-02E, 海拔: 295米

当前天气观测

该预报发布于27分钟前的14:00 UTC
风速11节,风向北转东北,在东转东北之间变化
温度 31°C
湿度 6%
气压 1011 hPa
能见度10公里或以上
1500米以下无云,无积雨云

METAR: FTTJ 221400Z 03011KT 360V060 CAVOK 31/M11 Q1011 NOSIG

时间: 15:27 (14:27 UTC)

预报

该预报发布于3小时和27分钟前的11:00 UTC
预报有效从22日的 12点(UTC)到 23日的 18点(UTC)
风速10节,风向东北
能見度: 8000
成为
从 22日的 21点(UTC)到 22日的 23点(UTC)
能見度: 4000
短暂存在
从 23日的 02点(UTC)到 23日的 06点(UTC)
风速6节,风向
能見度: 2500
浮尘

TAF: FTTJ 221100Z 2212/2318 04010KT 8000 NSW BECMG 2221/2223 4000 HZ TEMPO 2302/2306 36006KT 2500 DU

超过4000个机场的气象观测和天气预报(METAR&TAF报告)。

可查询的气象台以黄色和红色小点在地图上表示。

将鼠标移到小点上方,可查看气象台名称。

然后点击查看天气观测和预报。

如需切换地图:点击带黑十字的绿色按钮放大地图;点击带横线的绿色按钮缩小地图;或者点击绿色箭头查看邻近地区的地图。


METAR-TAF: